VRMG

Gan Island Airport

Airport
ICAO code
VRMG
IATA Code
GAN
Summary
ICAO Region
APAC
ICAO Territory
Location

Gan Island, Addu Atoll

Serving
Addu Atoll
Elevation
6 ft
Coordinates
0° 41' 36" S , 73° 9' 20" E
KCC
Am
Metar
Observation
VRMG 101200Z 08005KT 9999 FEW018TCU BKN270 30/25 Q1006 NOSIG
Station
Gan International Airport
Date/Time
2022-08-10 12:00:00
Wind direction
80°
Wind speed
05 kts
Lowest cloud amount
few clouds
Temperature
30°C
Dew point
25°C
Humidity
74%
QNH
1006 hPa
Weather condition
n/a

Gan International Airport is located on the island of Gan in Addu Atoll (previously known as Seenu Atoll) in the Maldives. As of June 2019, it is one of three international airports in the Maldives.

Climatology

Tropical monsoon climate (Köppen climate classification Am)

Airport map

Aerial View

SKYbrary Partners:

Safety knowledge contributed by: